sensor_id;sensor_type;location;lat;lon;timestamp;temperature;humidity
41168;DHT22;26906;45.658;9.272;2022-12-31T08:20:29;9.00;99.90
41168;DHT22;26906;45.658;9.272;2022-12-31T08:23:23;9.00;99.90
41168;DHT22;26906;45.658;9.272;2022-12-31T08:32:45;9.30;99.90
41168;DHT22;26906;45.658;9.272;2022-12-31T08:35:11;9.40;99.90
41168;DHT22;26906;45.658;9.272;2022-12-31T08:37:47;9.40;99.90
41168;DHT22;26906;45.658;9.272;2022-12-31T08:45:45;9.50;99.90
41168;DHT22;26906;45.658;9.272;2022-12-31T08:50:44;9.50;99.90
41168;DHT22;26906;45.658;9.272;2022-12-31T08:53:10;9.40;99.90
41168;DHT22;26906;45.658;9.272;2022-12-31T08:55:36;9.40;99.90
41168;DHT22;26906;45.658;9.272;2022-12-31T09:00:28;9.50;99.90
41168;DHT22;26906;45.658;9.272;2022-12-31T09:09:09;9.50;99.90
41168;DHT22;26906;45.658;9.272;2022-12-31T09:11:59;9.60;99.90
41168;DHT22;26906;45.658;9.272;2022-12-31T09:17:30;9.70;99.90
41168;DHT22;26906;45.658;9.272;2022-12-31T09:20:01;9.70;99.90
41168;DHT22;26906;45.658;9.272;2022-12-31T09:22:27;9.70;99.90
41168;DHT22;26906;45.658;9.272;2022-12-31T09:24:53;9.70;99.90
41168;DHT22;26906;45.658;9.272;2022-12-31T09:27:23;9.80;99.90
41168;DHT22;26906;45.658;9.272;2022-12-31T09:30:11;9.80;99.90
41168;DHT22;26906;45.658;9.272;2022-12-31T09:37:55;10.10;99.90
41168;DHT22;26906;45.658;9.272;2022-12-31T09:45:54;10.30;99.90
41168;DHT22;26906;45.658;9.272;2022-12-31T09:48:47;10.40;99.90
41168;DHT22;26906;45.658;9.272;2022-12-31T09:56:46;10.50;99.90
41168;DHT22;26906;45.658;9.272;2022-12-31T09:59:27;10.50;99.90
41168;DHT22;26906;45.658;9.272;2022-12-31T10:02:18;10.60;99.90
41168;DHT22;26906;45.658;9.272;2022-12-31T10:10:48;10.50;99.90
41168;DHT22;26906;45.658;9.272;2022-12-31T10:41:08;10.80;99.90
41168;DHT22;26906;45.658;9.272;2022-12-31T11:04:08;11.20;99.90
41168;DHT22;26906;45.658;9.272;2022-12-31T11:12:47;11.30;99.90
41168;DHT22;26906;45.658;9.272;2022-12-31T11:15:40;11.30;99.90
41168;DHT22;26906;45.658;9.272;2022-12-31T11:24:46;11.30;99.90
41168;DHT22;26906;45.658;9.272;2022-12-31T11:30:17;11.30;99.90
41168;DHT22;26906;45.658;9.272;2022-12-31T11:33:09;11.30;99.90
41168;DHT22;26906;45.658;9.272;2022-12-31T11:38:28;11.40;99.90
41168;DHT22;26906;45.658;9.272;2022-12-31T11:41:33;11.30;99.90
41168;DHT22;26906;45.658;9.272;2022-12-31T11:54:59;11.40;99.90
41168;DHT22;26906;45.658;9.272;2022-12-31T11:57:38;11.40;99.90
41168;DHT22;26906;45.658;9.272;2022-12-31T12:00:16;11.40;99.90
41168;DHT22;26906;45.658;9.272;2022-12-31T12:02:53;11.40;99.90
41168;DHT22;26906;45.658;9.272;2022-12-31T12:05:22;11.40;99.90
41168;DHT22;26906;45.658;9.272;2022-12-31T12:07:49;11.50;99.90
41168;DHT22;26906;45.658;9.272;2022-12-31T12:13:00;11.50;99.90
41168;DHT22;26906;45.658;9.272;2022-12-31T12:15:34;11.50;99.90
41168;DHT22;26906;45.658;9.272;2022-12-31T12:18:07;11.60;99.90
41168;DHT22;26906;45.658;9.272;2022-12-31T12:20:36;11.60;99.90
41168;DHT22;26906;45.658;9.272;2022-12-31T12:23:13;11.70;99.90
41168;DHT22;26906;45.658;9.272;2022-12-31T12:25:42;11.70;99.90
41168;DHT22;26906;45.658;9.272;2022-12-31T12:28:29;11.60;99.90
41168;DHT22;26906;45.658;9.272;2022-12-31T12:31:03;11.60;99.90
41168;DHT22;26906;45.658;9.272;2022-12-31T12:33:40;11.60;99.90
41168;DHT22;26906;45.658;9.272;2022-12-31T12:36:08;11.60;99.90
41168;DHT22;26906;45.658;9.272;2022-12-31T12:38:35;11.60;99.90
41168;DHT22;26906;45.658;9.272;2022-12-31T12:41:03;11.50;99.90
41168;DHT22;26906;45.658;9.272;2022-12-31T12:43:32;11.60;99.90
41168;DHT22;26906;45.658;9.272;2022-12-31T12:46:04;11.60;99.90
41168;DHT22;26906;45.658;9.272;2022-12-31T12:50:59;11.60;99.90
41168;DHT22;26906;45.658;9.272;2022-12-31T13:04:40;11.70;99.90
41168;DHT22;26906;45.658;9.272;2022-12-31T13:07:22;11.70;99.90
41168;DHT22;26906;45.658;9.272;2022-12-31T13:12:40;11.50;99.90
41168;DHT22;26906;45.658;9.272;2022-12-31T13:20:35;11.50;99.90
41168;DHT22;26906;45.658;9.272;2022-12-31T13:23:23;11.50;99.90
41168;DHT22;26906;45.658;9.272;2022-12-31T13:28:25;11.70;99.90
41168;DHT22;26906;45.658;9.272;2022-12-31T13:30:59;11.70;99.90
41168;DHT22;26906;45.658;9.272;2022-12-31T13:33:37;11.60;99.90
41168;DHT22;26906;45.658;9.272;2022-12-31T13:36:07;11.70;99.90
41168;DHT22;26906;45.658;9.272;2022-12-31T13:38:36;11.80;99.90
41168;DHT22;26906;45.658;9.272;2022-12-31T13:46:52;11.80;99.90
41168;DHT22;26906;45.658;9.272;2022-12-31T13:49:45;11.80;99.90
41168;DHT22;26906;45.658;9.272;2022-12-31T13:55:14;11.90;99.90
41168;DHT22;26906;45.658;9.272;2022-12-31T13:57:53;11.90;99.90
41168;DHT22;26906;45.658;9.272;2022-12-31T14:00:31;11.80;99.90
41168;DHT22;26906;45.658;9.272;2022-12-31T14:06:00;11.90;99.90
41168;DHT22;26906;45.658;9.272;2022-12-31T14:08:27;11.80;99.90
41168;DHT22;26906;45.658;9.272;2022-12-31T14:14:07;11.90;99.90
41168;DHT22;26906;45.658;9.272;2022-12-31T14:16:52;12.00;99.90
41168;DHT22;26906;45.658;9.272;2022-12-31T14:20:28;12.00;99.90
41168;DHT22;26906;45.658;9.272;2022-12-31T14:22:32;12.00;99.90
41168;DHT22;26906;45.658;9.272;2022-12-31T14:25:02;12.00;99.90
41168;DHT22;26906;45.658;9.272;2022-12-31T14:27:33;12.00;99.90
41168;DHT22;26906;45.658;9.272;2022-12-31T14:30:04;12.00;99.90
41168;DHT22;26906;45.658;9.272;2022-12-31T14:32:54;12.00;99.90
41168;DHT22;26906;45.658;9.272;2022-12-31T14:38:23;12.00;99.90
41168;DHT22;26906;45.658;9.272;2022-12-31T14:54:41;11.90;99.90
41168;DHT22;26906;45.658;9.272;2022-12-31T14:59:55;12.00;99.90
41168;DHT22;26906;45.658;9.272;2022-12-31T15:02:31;11.90;99.90
41168;DHT22;26906;45.658;9.272;2022-12-31T15:07:47;12.00;99.90
41168;DHT22;26906;45.658;9.272;2022-12-31T15:13:12;11.90;99.90
41168;DHT22;26906;45.658;9.272;2022-12-31T15:24:20;11.90;99.90
41168;DHT22;26906;45.658;9.272;2022-12-31T15:26:52;11.90;99.90
41168;DHT22;26906;45.658;9.272;2022-12-31T15:31:57;11.90;99.90
41168;DHT22;26906;45.658;9.272;2022-12-31T15:34:34;11.90;99.90
41168;DHT22;26906;45.658;9.272;2022-12-31T15:37:03;11.90;99.90
41168;DHT22;26906;45.658;9.272;2022-12-31T15:39:35;11.90;99.90
41168;DHT22;26906;45.658;9.272;2022-12-31T15:42:03;11.90;99.90
41168;DHT22;26906;45.658;9.272;2022-12-31T15:44:47;11.90;99.90
41168;DHT22;26906;45.658;9.272;2022-12-31T15:47:26;11.90;99.90
41168;DHT22;26906;45.658;9.272;2022-12-31T15:49:55;11.90;99.90
41168;DHT22;26906;45.658;9.272;2022-12-31T15:52:35;11.80;99.90
41168;DHT22;26906;45.658;9.272;2022-12-31T15:55:04;11.90;99.90
41168;DHT22;26906;45.658;9.272;2022-12-31T15:57:38;11.90;99.90
41168;DHT22;26906;45.658;9.272;2022-12-31T16:02:41;11.90;99.90
41168;DHT22;26906;45.658;9.272;2022-12-31T16:05:20;11.90;99.90
41168;DHT22;26906;45.658;9.272;2022-12-31T16:07:46;11.80;99.90
41168;DHT22;26906;45.658;9.272;2022-12-31T16:10:20;11.80;99.90
41168;DHT22;26906;45.658;9.272;2022-12-31T16:12:47;11.90;99.90
41168;DHT22;26906;45.658;9.272;2022-12-31T16:15:23;11.80;99.90
41168;DHT22;26906;45.658;9.272;2022-12-31T16:18:12;11.70;99.90
41168;DHT22;26906;45.658;9.272;2022-12-31T16:25:20;11.70;99.90
41168;DHT22;26906;45.658;9.272;2022-12-31T16:27:48;11.70;99.90
41168;DHT22;26906;45.658;9.272;2022-12-31T16:30:35;11.70;99.90
41168;DHT22;26906;45.658;9.272;2022-12-31T16:33:03;11.70;99.90
41168;DHT22;26906;45.658;9.272;2022-12-31T16:35:32;11.60;99.90
41168;DHT22;26906;45.658;9.272;2022-12-31T16:40:35;11.70;99.90
41168;DHT22;26906;45.658;9.272;2022-12-31T16:43:01;11.70;99.90
41168;DHT22;26906;45.658;9.272;2022-12-31T16:48:22;11.70;99.90
41168;DHT22;26906;45.658;9.272;2022-12-31T16:50:50;11.70;99.90
41168;DHT22;26906;45.658;9.272;2022-12-31T16:53:19;11.70;99.90
41168;DHT22;26906;45.658;9.272;2022-12-31T16:55:53;11.60;99.90
41168;DHT22;26906;45.658;9.272;2022-12-31T16:58:26;11.60;99.90
41168;DHT22;26906;45.658;9.272;2022-12-31T17:00:53;11.60;99.90
41168;DHT22;26906;45.658;9.272;2022-12-31T17:03:24;11.60;99.90
41168;DHT22;26906;45.658;9.272;2022-12-31T17:06:17;11.60;99.90
41168;DHT22;26906;45.658;9.272;2022-12-31T17:11:29;11.70;99.90
41168;DHT22;26906;45.658;9.272;2022-12-31T17:19:40;11.60;99.90
41168;DHT22;26906;45.658;9.272;2022-12-31T17:22:23;11.60;99.90
41168;DHT22;26906;45.658;9.272;2022-12-31T17:24:51;11.60;99.90
41168;DHT22;26906;45.658;9.272;2022-12-31T17:27:23;11.60;99.90
41168;DHT22;26906;45.658;9.272;2022-12-31T17:29:48;11.60;99.90
41168;DHT22;26906;45.658;9.272;2022-12-31T17:32:35;11.60;99.90
41168;DHT22;26906;45.658;9.272;2022-12-31T17:35:26;11.60;99.90
41168;DHT22;26906;45.658;9.272;2022-12-31T17:37:52;11.60;99.90
41168;DHT22;26906;45.658;9.272;2022-12-31T17:40:35;11.50;99.90
41168;DHT22;26906;45.658;9.272;2022-12-31T17:43:01;11.50;99.90
41168;DHT22;26906;45.658;9.272;2022-12-31T17:45:27;11.60;99.90
41168;DHT22;26906;45.658;9.272;2022-12-31T17:47:57;11.50;99.90
41168;DHT22;26906;45.658;9.272;2022-12-31T17:50:25;11.60;99.90
41168;DHT22;26906;45.658;9.272;2022-12-31T17:52:59;11.60;99.90
41168;DHT22;26906;45.658;9.272;2022-12-31T17:55:28;11.60;99.90
41168;DHT22;26906;45.658;9.272;2022-12-31T17:57:55;11.60;99.90
41168;DHT22;26906;45.658;9.272;2022-12-31T18:00:24;11.60;99.90
41168;DHT22;26906;45.658;9.272;2022-12-31T18:02:50;11.70;99.90
41168;DHT22;26906;45.658;9.272;2022-12-31T18:05:20;11.60;99.90
41168;DHT22;26906;45.658;9.272;2022-12-31T18:07:47;11.60;99.90
41168;DHT22;26906;45.658;9.272;2022-12-31T18:10:14;11.70;99.90
41168;DHT22;26906;45.658;9.272;2022-12-31T18:12:45;11.70;99.90
41168;DHT22;26906;45.658;9.272;2022-12-31T18:15:16;11.70;99.90
41168;DHT22;26906;45.658;9.272;2022-12-31T18:17:43;11.60;99.90
41168;DHT22;26906;45.658;9.272;2022-12-31T18:20:09;11.50;99.90
41168;DHT22;26906;45.658;9.272;2022-12-31T18:22:36;11.50;99.90
41168;DHT22;26906;45.658;9.272;2022-12-31T18:25:02;11.50;99.90
41168;DHT22;26906;45.658;9.272;2022-12-31T18:27:28;11.50;99.90
41168;DHT22;26906;45.658;9.272;2022-12-31T18:29:58;11.50;99.90
41168;DHT22;26906;45.658;9.272;2022-12-31T18:32:28;11.50;99.90
41168;DHT22;26906;45.658;9.272;2022-12-31T18:34:56;11.60;99.90
41168;DHT22;26906;45.658;9.272;2022-12-31T18:37:22;11.60;99.90
41168;DHT22;26906;45.658;9.272;2022-12-31T18:39:47;11.50;99.90
41168;DHT22;26906;45.658;9.272;2022-12-31T18:42:15;11.60;99.90
41168;DHT22;26906;45.658;9.272;2022-12-31T18:44:42;11.50;99.90
41168;DHT22;26906;45.658;9.272;2022-12-31T18:47:13;11.50;99.90
41168;DHT22;26906;45.658;9.272;2022-12-31T18:49:40;11.50;99.90
41168;DHT22;26906;45.658;9.272;2022-12-31T18:52:12;11.50;99.90
41168;DHT22;26906;45.658;9.272;2022-12-31T18:54:38;11.50;99.90
41168;DHT22;26906;45.658;9.272;2022-12-31T18:57:03;11.50;99.90
41168;DHT22;26906;45.658;9.272;2022-12-31T18:59:29;11.40;99.90
41168;DHT22;26906;45.658;9.272;2022-12-31T19:01:55;11.50;99.90
41168;DHT22;26906;45.658;9.272;2022-12-31T19:04:21;11.50;99.90
41168;DHT22;26906;45.658;9.272;2022-12-31T19:06:48;11.50;99.90
41168;DHT22;26906;45.658;9.272;2022-12-31T19:09:14;11.50;99.90
41168;DHT22;26906;45.658;9.272;2022-12-31T19:11:41;11.60;99.90
41168;DHT22;26906;45.658;9.272;2022-12-31T19:14:25;11.60;99.90
41168;DHT22;26906;45.658;9.272;2022-12-31T19:16:52;11.60;99.90
41168;DHT22;26906;45.658;9.272;2022-12-31T19:19:18;11.60;99.90
41168;DHT22;26906;45.658;9.272;2022-12-31T19:21:44;11.50;99.90
41168;DHT22;26906;45.658;9.272;2022-12-31T19:24:21;11.50;99.90
41168;DHT22;26906;45.658;9.272;2022-12-31T19:26:48;11.50;99.90
41168;DHT22;26906;45.658;9.272;2022-12-31T19:31:46;11.50;99.90
41168;DHT22;26906;45.658;9.272;2022-12-31T19:34:12;11.50;99.90
41168;DHT22;26906;45.658;9.272;2022-12-31T19:36:38;11.50;99.90
41168;DHT22;26906;45.658;9.272;2022-12-31T19:39:05;11.50;99.90
41168;DHT22;26906;45.658;9.272;2022-12-31T19:41:32;11.50;99.90
41168;DHT22;26906;45.658;9.272;2022-12-31T19:43:58;11.50;99.90
41168;DHT22;26906;45.658;9.272;2022-12-31T19:46:24;11.40;99.90
41168;DHT22;26906;45.658;9.272;2022-12-31T19:48:50;11.40;99.90
41168;DHT22;26906;45.658;9.272;2022-12-31T19:51:18;11.50;99.90
41168;DHT22;26906;45.658;9.272;2022-12-31T19:53:49;11.40;99.90
41168;DHT22;26906;45.658;9.272;2022-12-31T19:56:18;11.40;99.90
41168;DHT22;26906;45.658;9.272;2022-12-31T19:58:45;11.40;99.90
41168;DHT22;26906;45.658;9.272;2022-12-31T20:01:22;11.30;99.90
41168;DHT22;26906;45.658;9.272;2022-12-31T20:03:49;11.40;99.90
41168;DHT22;26906;45.658;9.272;2022-12-31T20:06:16;11.40;99.90
41168;DHT22;26906;45.658;9.272;2022-12-31T20:08:42;11.40;99.90
41168;DHT22;26906;45.658;9.272;2022-12-31T20:11:13;11.50;99.90
41168;DHT22;26906;45.658;9.272;2022-12-31T20:13:40;11.50;99.90
41168;DHT22;26906;45.658;9.272;2022-12-31T20:16:08;12.00;99.90
41168;DHT22;26906;45.658;9.272;2022-12-31T20:18:36;11.50;99.90
41168;DHT22;26906;45.658;9.272;2022-12-31T20:21:01;11.60;99.90
41168;DHT22;26906;45.658;9.272;2022-12-31T20:23:32;11.60;99.90
41168;DHT22;26906;45.658;9.272;2022-12-31T20:25:59;11.50;99.90
41168;DHT22;26906;45.658;9.272;2022-12-31T20:28:25;11.50;99.90
41168;DHT22;26906;45.658;9.272;2022-12-31T20:30:50;11.30;99.90
41168;DHT22;26906;45.658;9.272;2022-12-31T20:33:16;11.40;99.90
41168;DHT22;26906;45.658;9.272;2022-12-31T20:35:42;11.40;99.90
41168;DHT22;26906;45.658;9.272;2022-12-31T20:38:08;11.50;99.90
41168;DHT22;26906;45.658;9.272;2022-12-31T20:40:33;11.50;99.90
41168;DHT22;26906;45.658;9.272;2022-12-31T20:42:59;11.60;99.90
41168;DHT22;26906;45.658;9.272;2022-12-31T20:45:25;11.60;99.90
41168;DHT22;26906;45.658;9.272;2022-12-31T20:47:51;11.70;99.90
41168;DHT22;26906;45.658;9.272;2022-12-31T20:50:16;11.60;99.90
41168;DHT22;26906;45.658;9.272;2022-12-31T20:52:42;11.70;99.90
41168;DHT22;26906;45.658;9.272;2022-12-31T20:55:09;11.60;99.90
41168;DHT22;26906;45.658;9.272;2022-12-31T20:57:35;11.50;99.90
41168;DHT22;26906;45.658;9.272;2022-12-31T21:00:03;11.40;99.90
41168;DHT22;26906;45.658;9.272;2022-12-31T21:02:29;11.40;99.90
41168;DHT22;26906;45.658;9.272;2022-12-31T21:04:54;11.50;99.90
41168;DHT22;26906;45.658;9.272;2022-12-31T21:07:20;11.50;99.90
41168;DHT22;26906;45.658;9.272;2022-12-31T21:09:46;11.40;99.90
41168;DHT22;26906;45.658;9.272;2022-12-31T21:12:11;11.50;99.90
41168;DHT22;26906;45.658;9.272;2022-12-31T21:14:55;11.40;99.90
41168;DHT22;26906;45.658;9.272;2022-12-31T21:17:21;11.20;99.90
41168;DHT22;26906;45.658;9.272;2022-12-31T21:19:47;11.40;99.90
41168;DHT22;26906;45.658;9.272;2022-12-31T21:22:16;11.60;99.90
41168;DHT22;26906;45.658;9.272;2022-12-31T21:24:41;11.60;99.90
41168;DHT22;26906;45.658;9.272;2022-12-31T21:27:07;11.50;99.90
41168;DHT22;26906;45.658;9.272;2022-12-31T21:29:33;11.50;99.90
41168;DHT22;26906;45.658;9.272;2022-12-31T21:31:58;11.50;99.90
41168;DHT22;26906;45.658;9.272;2022-12-31T21:34:24;11.60;99.90
41168;DHT22;26906;45.658;9.272;2022-12-31T21:36:50;11.40;99.90
41168;DHT22;26906;45.658;9.272;2022-12-31T21:39:15;11.30;99.90
41168;DHT22;26906;45.658;9.272;2022-12-31T21:41:41;11.20;99.90
41168;DHT22;26906;45.658;9.272;2022-12-31T21:44:18;11.10;99.90
41168;DHT22;26906;45.658;9.272;2022-12-31T21:46:59;11.10;99.90
41168;DHT22;26906;45.658;9.272;2022-12-31T21:49:45;11.10;99.90
41168;DHT22;26906;45.658;9.272;2022-12-31T21:52:12;11.20;99.90
41168;DHT22;26906;45.658;9.272;2022-12-31T21:54:50;11.20;99.90
41168;DHT22;26906;45.658;9.272;2022-12-31T21:57:37;11.20;99.90
